Terminal Aerodrome Forecast
Issued by NWS Houston/Galveston, TX

Home | Current Version | Previous Version | Text Only | Print | Product List | Glossary On
Versions: 1 2 3 4 5 6 7 8 9 10 11 12 13 14 15 16 17 18 19 20 21 22 23 24 25 26 27 28 29
000
FTUS44 KHGX 252157 AAC
TAFGLS
TAF AMD
KGLS 252157Z 2522/2618 20012KT P6SM SKC
      TEMPO 2609/2612 BKN025=

USA.gov is the U.S. government's official web portal to all federal, state and local government web resources and services.